sensor_id;sensor_type;location;lat;lon;timestamp;P1;durP1;ratioP1;P2;durP2;ratioP2
60492;SDS011;46341;51.290;-2.474;2022-10-17T00:01:54;11.80;;;2.25;;
60492;SDS011;46341;51.290;-2.474;2022-10-17T00:04:21;11.20;;;2.17;;
60492;SDS011;46341;51.290;-2.474;2022-10-17T00:06:47;13.40;;;2.35;;
60492;SDS011;46341;51.290;-2.474;2022-10-17T00:09:13;8.00;;;1.70;;
60492;SDS011;46341;51.290;-2.474;2022-10-17T00:11:40;10.70;;;1.90;;
60492;SDS011;46341;51.290;-2.474;2022-10-17T00:14:06;15.30;;;2.40;;
60492;SDS011;46341;51.290;-2.474;2022-10-17T00:16:33;9.20;;;2.05;;
60492;SDS011;46341;51.290;-2.474;2022-10-17T00:19:05;8.73;;;1.65;;
60492;SDS011;46341;51.290;-2.474;2022-10-17T00:21:31;11.68;;;2.00;;
60492;SDS011;46341;51.290;-2.474;2022-10-17T00:23:58;12.57;;;1.97;;
60492;SDS011;46341;51.290;-2.474;2022-10-17T00:26:25;8.10;;;1.98;;
60492;SDS011;46341;51.290;-2.474;2022-10-17T00:28:52;11.45;;;1.77;;
60492;SDS011;46341;51.290;-2.474;2022-10-17T00:31:20;11.52;;;1.90;;
60492;SDS011;46341;51.290;-2.474;2022-10-17T00:33:46;7.75;;;1.80;;
60492;SDS011;46341;51.290;-2.474;2022-10-17T00:36:15;11.07;;;2.15;;
60492;SDS011;46341;51.290;-2.474;2022-10-17T00:38:42;10.23;;;2.05;;
60492;SDS011;46341;51.290;-2.474;2022-10-17T00:41:10;9.80;;;1.83;;
60492;SDS011;46341;51.290;-2.474;2022-10-17T00:43:50;12.98;;;2.13;;
60492;SDS011;46341;51.290;-2.474;2022-10-17T00:46:17;11.38;;;2.00;;
60492;SDS011;46341;51.290;-2.474;2022-10-17T00:48:43;14.50;;;2.35;;
60492;SDS011;46341;51.290;-2.474;2022-10-17T00:51:10;10.85;;;1.83;;
60492;SDS011;46341;51.290;-2.474;2022-10-17T00:53:36;7.53;;;2.10;;
60492;SDS011;46341;51.290;-2.474;2022-10-17T00:56:04;12.68;;;1.98;;
60492;SDS011;46341;51.290;-2.474;2022-10-17T00:58:31;19.13;;;2.63;;
60492;SDS011;46341;51.290;-2.474;2022-10-17T01:00:57;14.60;;;2.50;;
60492;SDS011;46341;51.290;-2.474;2022-10-17T01:03:23;12.63;;;1.88;;
60492;SDS011;46341;51.290;-2.474;2022-10-17T01:05:50;12.93;;;2.00;;
60492;SDS011;46341;51.290;-2.474;2022-10-17T01:08:16;15.82;;;2.33;;
60492;SDS011;46341;51.290;-2.474;2022-10-17T01:13:33;12.50;;;1.92;;
60492;SDS011;46341;51.290;-2.474;2022-10-17T01:18:37;10.65;;;2.03;;
60492;SDS011;46341;51.290;-2.474;2022-10-17T01:23:39;13.73;;;2.38;;
60492;SDS011;46341;51.290;-2.474;2022-10-17T01:26:15;14.30;;;2.50;;
60492;SDS011;46341;51.290;-2.474;2022-10-17T01:31:31;13.77;;;2.10;;
60492;SDS011;46341;51.290;-2.474;2022-10-17T01:34:02;13.52;;;2.47;;
60492;SDS011;46341;51.290;-2.474;2022-10-17T01:36:34;9.02;;;2.38;;
60492;SDS011;46341;51.290;-2.474;2022-10-17T01:41:56;9.88;;;2.22;;
60492;SDS011;46341;51.290;-2.474;2022-10-17T01:46:51;16.10;;;2.50;;
60492;SDS011;46341;51.290;-2.474;2022-10-17T01:49:21;16.05;;;2.45;;
60492;SDS011;46341;51.290;-2.474;2022-10-17T01:51:56;16.35;;;2.95;;
60492;SDS011;46341;51.290;-2.474;2022-10-17T01:54:25;14.75;;;2.33;;
60492;SDS011;46341;51.290;-2.474;2022-10-17T01:56:55;12.82;;;2.53;;
60492;SDS011;46341;51.290;-2.474;2022-10-17T01:59:24;14.50;;;2.53;;
60492;SDS011;46341;51.290;-2.474;2022-10-17T02:01:52;13.88;;;2.60;;
60492;SDS011;46341;51.290;-2.474;2022-10-17T02:04:19;15.43;;;2.50;;
60492;SDS011;46341;51.290;-2.474;2022-10-17T02:06:46;14.20;;;2.83;;
60492;SDS011;46341;51.290;-2.474;2022-10-17T02:09:15;14.13;;;2.33;;
60492;SDS011;46341;51.290;-2.474;2022-10-17T02:11:41;13.90;;;2.28;;
60492;SDS011;46341;51.290;-2.474;2022-10-17T02:14:30;13.38;;;1.85;;
60492;SDS011;46341;51.290;-2.474;2022-10-17T02:19:49;12.50;;;2.10;;
60492;SDS011;46341;51.290;-2.474;2022-10-17T02:28:18;14.05;;;2.83;;
60492;SDS011;46341;51.290;-2.474;2022-10-17T02:30:46;17.00;;;2.90;;
60492;SDS011;46341;51.290;-2.474;2022-10-17T02:33:15;14.68;;;2.50;;
60492;SDS011;46341;51.290;-2.474;2022-10-17T02:35:45;10.48;;;2.03;;
60492;SDS011;46341;51.290;-2.474;2022-10-17T02:38:12;17.83;;;2.97;;
60492;SDS011;46341;51.290;-2.474;2022-10-17T02:40:39;18.05;;;2.67;;
60492;SDS011;46341;51.290;-2.474;2022-10-17T02:43:06;14.30;;;2.20;;
60492;SDS011;46341;51.290;-2.474;2022-10-17T02:45:32;14.38;;;2.35;;
60492;SDS011;46341;51.290;-2.474;2022-10-17T02:48:02;14.43;;;2.45;;
60492;SDS011;46341;51.290;-2.474;2022-10-17T02:50:36;15.68;;;2.13;;
60492;SDS011;46341;51.290;-2.474;2022-10-17T02:53:05;8.52;;;2.35;;
60492;SDS011;46341;51.290;-2.474;2022-10-17T02:55:38;15.25;;;2.70;;
60492;SDS011;46341;51.290;-2.474;2022-10-17T02:58:07;16.58;;;2.63;;
60492;SDS011;46341;51.290;-2.474;2022-10-17T03:00:36;13.75;;;2.28;;
60492;SDS011;46341;51.290;-2.474;2022-10-17T03:03:09;16.98;;;2.55;;
60492;SDS011;46341;51.290;-2.474;2022-10-17T03:05:43;12.93;;;2.22;;
60492;SDS011;46341;51.290;-2.474;2022-10-17T03:08:09;17.38;;;2.40;;
60492;SDS011;46341;51.290;-2.474;2022-10-17T03:10:36;14.52;;;2.75;;
60492;SDS011;46341;51.290;-2.474;2022-10-17T03:13:03;15.05;;;2.47;;
60492;SDS011;46341;51.290;-2.474;2022-10-17T03:15:29;14.70;;;2.17;;
60492;SDS011;46341;51.290;-2.474;2022-10-17T03:17:55;10.85;;;1.95;;
60492;SDS011;46341;51.290;-2.474;2022-10-17T03:20:22;8.55;;;1.73;;
60492;SDS011;46341;51.290;-2.474;2022-10-17T03:22:48;13.00;;;2.13;;
60492;SDS011;46341;51.290;-2.474;2022-10-17T03:25:15;12.45;;;2.10;;
60492;SDS011;46341;51.290;-2.474;2022-10-17T03:27:41;12.45;;;2.53;;
60492;SDS011;46341;51.290;-2.474;2022-10-17T03:30:08;11.50;;;2.03;;
60492;SDS011;46341;51.290;-2.474;2022-10-17T03:32:34;17.10;;;2.22;;
60492;SDS011;46341;51.290;-2.474;2022-10-17T03:35:01;13.27;;;2.00;;
60492;SDS011;46341;51.290;-2.474;2022-10-17T03:37:27;13.38;;;2.55;;
60492;SDS011;46341;51.290;-2.474;2022-10-17T03:39:54;16.10;;;2.50;;
60492;SDS011;46341;51.290;-2.474;2022-10-17T03:42:20;16.60;;;2.30;;
60492;SDS011;46341;51.290;-2.474;2022-10-17T03:44:47;13.35;;;1.58;;
60492;SDS011;46341;51.290;-2.474;2022-10-17T03:47:13;11.38;;;1.85;;
60492;SDS011;46341;51.290;-2.474;2022-10-17T03:49:39;14.65;;;2.35;;
60492;SDS011;46341;51.290;-2.474;2022-10-17T03:52:09;13.93;;;2.45;;
60492;SDS011;46341;51.290;-2.474;2022-10-17T03:54:36;13.13;;;2.33;;
60492;SDS011;46341;51.290;-2.474;2022-10-17T03:57:02;12.73;;;2.03;;
60492;SDS011;46341;51.290;-2.474;2022-10-17T03:59:28;8.43;;;1.55;;
60492;SDS011;46341;51.290;-2.474;2022-10-17T04:01:55;12.10;;;2.03;;
60492;SDS011;46341;51.290;-2.474;2022-10-17T04:04:21;10.82;;;2.38;;
60492;SDS011;46341;51.290;-2.474;2022-10-17T04:06:48;12.35;;;1.83;;
60492;SDS011;46341;51.290;-2.474;2022-10-17T04:09:14;9.10;;;1.88;;
60492;SDS011;46341;51.290;-2.474;2022-10-17T04:11:40;17.33;;;1.92;;
60492;SDS011;46341;51.290;-2.474;2022-10-17T04:14:08;13.05;;;2.42;;
60492;SDS011;46341;51.290;-2.474;2022-10-17T04:16:34;11.00;;;2.38;;
60492;SDS011;46341;51.290;-2.474;2022-10-17T04:19:01;9.75;;;1.85;;
60492;SDS011;46341;51.290;-2.474;2022-10-17T04:21:28;11.82;;;1.70;;
60492;SDS011;46341;51.290;-2.474;2022-10-17T04:23:58;10.25;;;1.90;;
60492;SDS011;46341;51.290;-2.474;2022-10-17T04:26:25;13.82;;;2.10;;
60492;SDS011;46341;51.290;-2.474;2022-10-17T04:28:51;16.95;;;1.55;;
60492;SDS011;46341;51.290;-2.474;2022-10-17T04:31:18;15.93;;;2.30;;
60492;SDS011;46341;51.290;-2.474;2022-10-17T04:33:48;10.60;;;1.85;;
60492;SDS011;46341;51.290;-2.474;2022-10-17T04:36:16;10.73;;;1.58;;
60492;SDS011;46341;51.290;-2.474;2022-10-17T04:38:43;10.82;;;1.98;;
60492;SDS011;46341;51.290;-2.474;2022-10-17T04:41:13;10.80;;;1.67;;
60492;SDS011;46341;51.290;-2.474;2022-10-17T04:43:39;13.15;;;2.10;;
60492;SDS011;46341;51.290;-2.474;2022-10-17T04:46:10;10.85;;;1.95;;
60492;SDS011;46341;51.290;-2.474;2022-10-17T04:48:37;12.02;;;1.88;;
60492;SDS011;46341;51.290;-2.474;2022-10-17T04:51:05;12.73;;;1.70;;
60492;SDS011;46341;51.290;-2.474;2022-10-17T04:53:32;12.02;;;2.30;;
60492;SDS011;46341;51.290;-2.474;2022-10-17T04:58:27;17.23;;;1.92;;
60492;SDS011;46341;51.290;-2.474;2022-10-17T05:00:53;18.65;;;2.42;;
60492;SDS011;46341;51.290;-2.474;2022-10-17T05:03:20;10.38;;;1.98;;
60492;SDS011;46341;51.290;-2.474;2022-10-17T05:05:46;15.75;;;2.55;;
60492;SDS011;46341;51.290;-2.474;2022-10-17T05:08:13;12.80;;;1.73;;
60492;SDS011;46341;51.290;-2.474;2022-10-17T05:10:40;10.38;;;1.92;;
60492;SDS011;46341;51.290;-2.474;2022-10-17T05:13:07;13.82;;;2.30;;
60492;SDS011;46341;51.290;-2.474;2022-10-17T05:15:34;8.50;;;2.10;;
60492;SDS011;46341;51.290;-2.474;2022-10-17T05:18:01;14.65;;;2.30;;
60492;SDS011;46341;51.290;-2.474;2022-10-17T05:20:28;11.90;;;2.38;;
60492;SDS011;46341;51.290;-2.474;2022-10-17T05:22:54;14.38;;;2.80;;
60492;SDS011;46341;51.290;-2.474;2022-10-17T05:25:20;18.85;;;2.22;;
60492;SDS011;46341;51.290;-2.474;2022-10-17T05:27:47;13.82;;;2.55;;
60492;SDS011;46341;51.290;-2.474;2022-10-17T05:30:13;14.55;;;2.35;;
60492;SDS011;46341;51.290;-2.474;2022-10-17T05:32:39;12.10;;;1.92;;
60492;SDS011;46341;51.290;-2.474;2022-10-17T05:35:06;12.52;;;2.42;;
60492;SDS011;46341;51.290;-2.474;2022-10-17T05:37:32;13.13;;;3.13;;
60492;SDS011;46341;51.290;-2.474;2022-10-17T05:39:59;14.48;;;2.17;;
60492;SDS011;46341;51.290;-2.474;2022-10-17T05:42:25;10.35;;;1.90;;
60492;SDS011;46341;51.290;-2.474;2022-10-17T05:44:52;13.65;;;1.95;;
60492;SDS011;46341;51.290;-2.474;2022-10-17T05:47:18;13.35;;;1.77;;
60492;SDS011;46341;51.290;-2.474;2022-10-17T05:49:45;14.95;;;2.33;;
60492;SDS011;46341;51.290;-2.474;2022-10-17T05:52:17;11.65;;;2.00;;
60492;SDS011;46341;51.290;-2.474;2022-10-17T05:54:43;12.55;;;2.22;;
60492;SDS011;46341;51.290;-2.474;2022-10-17T05:57:10;12.20;;;1.88;;
60492;SDS011;46341;51.290;-2.474;2022-10-17T05:59:36;14.73;;;2.03;;
60492;SDS011;46341;51.290;-2.474;2022-10-17T06:02:03;12.52;;;2.25;;
60492;SDS011;46341;51.290;-2.474;2022-10-17T06:04:29;11.68;;;1.90;;
60492;SDS011;46341;51.290;-2.474;2022-10-17T06:06:56;13.10;;;2.72;;
60492;SDS011;46341;51.290;-2.474;2022-10-17T06:09:22;17.77;;;2.25;;
60492;SDS011;46341;51.290;-2.474;2022-10-17T06:11:49;11.77;;;2.73;;
60492;SDS011;46341;51.290;-2.474;2022-10-17T06:14:15;12.80;;;2.08;;
60492;SDS011;46341;51.290;-2.474;2022-10-17T06:16:42;10.25;;;2.15;;
60492;SDS011;46341;51.290;-2.474;2022-10-17T06:19:08;11.90;;;2.17;;
60492;SDS011;46341;51.290;-2.474;2022-10-17T06:21:36;12.23;;;2.30;;
60492;SDS011;46341;51.290;-2.474;2022-10-17T06:24:04;14.45;;;1.83;;
60492;SDS011;46341;51.290;-2.474;2022-10-17T06:26:30;15.98;;;2.67;;
60492;SDS011;46341;51.290;-2.474;2022-10-17T06:28:57;11.93;;;2.03;;
60492;SDS011;46341;51.290;-2.474;2022-10-17T06:31:23;14.50;;;2.63;;
60492;SDS011;46341;51.290;-2.474;2022-10-17T06:33:49;13.85;;;2.38;;
60492;SDS011;46341;51.290;-2.474;2022-10-17T06:36:16;9.93;;;2.38;;
60492;SDS011;46341;51.290;-2.474;2022-10-17T06:38:42;13.57;;;2.30;;
60492;SDS011;46341;51.290;-2.474;2022-10-17T06:41:09;17.13;;;2.72;;
60492;SDS011;46341;51.290;-2.474;2022-10-17T06:43:38;16.85;;;2.30;;
60492;SDS011;46341;51.290;-2.474;2022-10-17T06:46:05;15.88;;;2.85;;
60492;SDS011;46341;51.290;-2.474;2022-10-17T06:48:32;16.48;;;2.70;;
60492;SDS011;46341;51.290;-2.474;2022-10-17T06:50:58;15.02;;;2.85;;
60492;SDS011;46341;51.290;-2.474;2022-10-17T06:53:29;19.13;;;2.95;;
60492;SDS011;46341;51.290;-2.474;2022-10-17T06:55:56;13.75;;;2.22;;
60492;SDS011;46341;51.290;-2.474;2022-10-17T06:58:26;13.18;;;2.08;;
60492;SDS011;46341;51.290;-2.474;2022-10-17T07:00:57;14.57;;;1.90;;
60492;SDS011;46341;51.290;-2.474;2022-10-17T07:03:26;12.82;;;2.15;;
60492;SDS011;46341;51.290;-2.474;2022-10-17T07:05:53;13.02;;;1.95;;
60492;SDS011;46341;51.290;-2.474;2022-10-17T07:08:20;12.70;;;2.33;;
60492;SDS011;46341;51.290;-2.474;2022-10-17T07:10:46;14.48;;;2.55;;
60492;SDS011;46341;51.290;-2.474;2022-10-17T07:13:13;13.68;;;2.47;;
60492;SDS011;46341;51.290;-2.474;2022-10-17T07:15:40;15.05;;;2.22;;
60492;SDS011;46341;51.290;-2.474;2022-10-17T07:18:06;10.35;;;1.90;;
60492;SDS011;46341;51.290;-2.474;2022-10-17T07:20:33;15.98;;;2.35;;
60492;SDS011;46341;51.290;-2.474;2022-10-17T07:22:59;14.15;;;2.42;;
60492;SDS011;46341;51.290;-2.474;2022-10-17T07:25:25;12.93;;;2.63;;
60492;SDS011;46341;51.290;-2.474;2022-10-17T07:27:52;17.70;;;2.95;;
60492;SDS011;46341;51.290;-2.474;2022-10-17T07:30:18;20.17;;;2.55;;
60492;SDS011;46341;51.290;-2.474;2022-10-17T07:32:45;13.63;;;2.53;;
60492;SDS011;46341;51.290;-2.474;2022-10-17T07:35:11;17.73;;;2.55;;
60492;SDS011;46341;51.290;-2.474;2022-10-17T07:37:38;12.05;;;2.53;;
60492;SDS011;46341;51.290;-2.474;2022-10-17T07:40:05;17.25;;;3.13;;
60492;SDS011;46341;51.290;-2.474;2022-10-17T07:42:32;14.43;;;2.63;;
60492;SDS011;46341;51.290;-2.474;2022-10-17T07:45:01;15.20;;;2.33;;
60492;SDS011;46341;51.290;-2.474;2022-10-17T07:47:28;14.27;;;2.63;;
60492;SDS011;46341;51.290;-2.474;2022-10-17T07:49:57;13.90;;;2.72;;
60492;SDS011;46341;51.290;-2.474;2022-10-17T07:52:23;11.02;;;2.20;;
60492;SDS011;46341;51.290;-2.474;2022-10-17T07:54:49;19.38;;;2.90;;
60492;SDS011;46341;51.290;-2.474;2022-10-17T07:57:16;12.13;;;3.20;;
60492;SDS011;46341;51.290;-2.474;2022-10-17T07:59:42;13.98;;;3.10;;
60492;SDS011;46341;51.290;-2.474;2022-10-17T08:02:13;13.07;;;3.25;;
60492;SDS011;46341;51.290;-2.474;2022-10-17T08:04:43;11.70;;;2.60;;
60492;SDS011;46341;51.290;-2.474;2022-10-17T08:07:09;14.25;;;2.97;;
60492;SDS011;46341;51.290;-2.474;2022-10-17T08:09:48;16.25;;;2.67;;
60492;SDS011;46341;51.290;-2.474;2022-10-17T08:12:14;15.77;;;2.40;;
60492;SDS011;46341;51.290;-2.474;2022-10-17T08:14:41;13.73;;;3.45;;
60492;SDS011;46341;51.290;-2.474;2022-10-17T08:17:08;16.63;;;2.53;;
60492;SDS011;46341;51.290;-2.474;2022-10-17T08:19:40;13.33;;;2.43;;
60492;SDS011;46341;51.290;-2.474;2022-10-17T08:22:07;11.68;;;2.25;;
60492;SDS011;46341;51.290;-2.474;2022-10-17T08:24:33;10.70;;;2.13;;
60492;SDS011;46341;51.290;-2.474;2022-10-17T08:27:00;10.20;;;2.08;;
60492;SDS011;46341;51.290;-2.474;2022-10-17T08:29:26;11.10;;;2.10;;
60492;SDS011;46341;51.290;-2.474;2022-10-17T08:31:53;11.00;;;2.80;;
60492;SDS011;46341;51.290;-2.474;2022-10-17T08:34:26;13.48;;;2.60;;
60492;SDS011;46341;51.290;-2.474;2022-10-17T08:36:53;11.15;;;2.22;;
60492;SDS011;46341;51.290;-2.474;2022-10-17T08:39:19;11.87;;;1.87;;
60492;SDS011;46341;51.290;-2.474;2022-10-17T08:46:51;8.18;;;1.75;;
60492;SDS011;46341;51.290;-2.474;2022-10-17T08:49:27;11.30;;;1.90;;
60492;SDS011;46341;51.290;-2.474;2022-10-17T08:52:01;7.22;;;1.90;;
60492;SDS011;46341;51.290;-2.474;2022-10-17T08:54:37;9.30;;;1.60;;
60492;SDS011;46341;51.290;-2.474;2022-10-17T08:57:08;7.70;;;1.55;;
60492;SDS011;46341;51.290;-2.474;2022-10-17T08:59:36;7.88;;;1.65;;
60492;SDS011;46341;51.290;-2.474;2022-10-17T09:02:05;8.30;;;1.65;;
60492;SDS011;46341;51.290;-2.474;2022-10-17T09:09:56;7.10;;;1.65;;
60492;SDS011;46341;51.290;-2.474;2022-10-17T09:15:00;9.68;;;2.03;;
60492;SDS011;46341;51.290;-2.474;2022-10-17T09:17:41;7.85;;;1.50;;
60492;SDS011;46341;51.290;-2.474;2022-10-17T09:20:11;9.38;;;1.90;;
60492;SDS011;46341;51.290;-2.474;2022-10-17T09:25:13;6.70;;;1.90;;
60492;SDS011;46341;51.290;-2.474;2022-10-17T09:33:18;5.35;;;1.65;;
60492;SDS011;46341;51.290;-2.474;2022-10-17T09:36:08;6.70;;;1.80;;
60492;SDS011;46341;51.290;-2.474;2022-10-17T09:38:40;7.55;;;2.08;;
60492;SDS011;46341;51.290;-2.474;2022-10-17T09:41:12;6.93;;;1.50;;
60492;SDS011;46341;51.290;-2.474;2022-10-17T09:44:35;6.38;;;1.60;;
60492;SDS011;46341;51.290;-2.474;2022-10-17T09:49:35;6.35;;;1.27;;
60492;SDS011;46341;51.290;-2.474;2022-10-17T09:52:04;6.38;;;1.48;;
60492;SDS011;46341;51.290;-2.474;2022-10-17T09:54:53;6.20;;;1.40;;
60492;SDS011;46341;51.290;-2.474;2022-10-17T09:57:18;6.35;;;1.70;;
60492;SDS011;46341;51.290;-2.474;2022-10-17T10:02:40;5.07;;;1.35;;
60492;SDS011;46341;51.290;-2.474;2022-10-17T10:05:16;7.10;;;1.40;;
60492;SDS011;46341;51.290;-2.474;2022-10-17T10:10:28;6.95;;;1.50;;
60492;SDS011;46341;51.290;-2.474;2022-10-17T10:13:38;8.38;;;1.70;;
60492;SDS011;46341;51.290;-2.474;2022-10-17T10:15:48;7.07;;;1.35;;
60492;SDS011;46341;51.290;-2.474;2022-10-17T10:23:33;6.60;;;1.55;;
60492;SDS011;46341;51.290;-2.474;2022-10-17T10:26:03;6.22;;;1.30;;
60492;SDS011;46341;51.290;-2.474;2022-10-17T10:28:33;6.85;;;1.48;;
60492;SDS011;46341;51.290;-2.474;2022-10-17T10:31:09;5.55;;;1.40;;
60492;SDS011;46341;51.290;-2.474;2022-10-17T10:33:36;6.90;;;1.60;;
60492;SDS011;46341;51.290;-2.474;2022-10-17T10:36:07;6.50;;;1.13;;
60492;SDS011;46341;51.290;-2.474;2022-10-17T10:38:34;5.93;;;1.25;;
60492;SDS011;46341;51.290;-2.474;2022-10-17T10:41:02;4.13;;;1.08;;
60492;SDS011;46341;51.290;-2.474;2022-10-17T10:46:06;6.28;;;1.55;;
60492;SDS011;46341;51.290;-2.474;2022-10-17T10:48:48;6.10;;;1.33;;
60492;SDS011;46341;51.290;-2.474;2022-10-17T10:51:16;5.60;;;1.35;;
60492;SDS011;46341;51.290;-2.474;2022-10-17T10:56:17;5.22;;;1.38;;
60492;SDS011;46341;51.290;-2.474;2022-10-17T10:58:55;6.03;;;1.08;;
60492;SDS011;46341;51.290;-2.474;2022-10-17T11:06:28;9.07;;;1.40;;
60492;SDS011;46341;51.290;-2.474;2022-10-17T11:09:17;5.07;;;0.93;;
60492;SDS011;46341;51.290;-2.474;2022-10-17T11:11:49;8.40;;;1.35;;
60492;SDS011;46341;51.290;-2.474;2022-10-17T11:14:24;7.15;;;1.55;;
60492;SDS011;46341;51.290;-2.474;2022-10-17T11:17:00;3.92;;;1.20;;
60492;SDS011;46341;51.290;-2.474;2022-10-17T11:19:40;5.90;;;1.40;;
60492;SDS011;46341;51.290;-2.474;2022-10-17T11:22:15;6.07;;;1.65;;
60492;SDS011;46341;51.290;-2.474;2022-10-17T11:25:03;6.32;;;1.42;;
60492;SDS011;46341;51.290;-2.474;2022-10-17T11:27:29;7.00;;;1.33;;
60492;SDS011;46341;51.290;-2.474;2022-10-17T11:29:56;5.45;;;1.20;;
60492;SDS011;46341;51.290;-2.474;2022-10-17T11:35:00;6.38;;;1.20;;
60492;SDS011;46341;51.290;-2.474;2022-10-17T11:37:29;4.45;;;1.50;;
60492;SDS011;46341;51.290;-2.474;2022-10-17T11:40:05;4.65;;;1.10;;
60492;SDS011;46341;51.290;-2.474;2022-10-17T11:42:34;3.35;;;0.90;;
60492;SDS011;46341;51.290;-2.474;2022-10-17T11:45:08;4.45;;;0.90;;
60492;SDS011;46341;51.290;-2.474;2022-10-17T11:47:38;4.47;;;1.05;;
60492;SDS011;46341;51.290;-2.474;2022-10-17T11:55:23;6.50;;;1.20;;
60492;SDS011;46341;51.290;-2.474;2022-10-17T11:57:55;4.47;;;0.82;;
60492;SDS011;46341;51.290;-2.474;2022-10-17T12:08:46;8.90;;;1.30;;
60492;SDS011;46341;51.290;-2.474;2022-10-17T12:13:59;5.38;;;1.10;;
60492;SDS011;46341;51.290;-2.474;2022-10-17T12:21:27;4.38;;;1.17;;
60492;SDS011;46341;51.290;-2.474;2022-10-17T12:23:57;4.07;;;1.08;;
60492;SDS011;46341;51.290;-2.474;2022-10-17T12:26:24;5.83;;;1.33;;
60492;SDS011;46341;51.290;-2.474;2022-10-17T12:28:51;6.85;;;1.20;;
60492;SDS011;46341;51.290;-2.474;2022-10-17T12:44:50;3.47;;;0.97;;
60492;SDS011;46341;51.290;-2.474;2022-10-17T12:54:55;3.30;;;0.90;;
60492;SDS011;46341;51.290;-2.474;2022-10-17T13:00:11;4.25;;;1.00;;
60492;SDS011;46341;51.290;-2.474;2022-10-17T13:02:39;6.10;;;0.93;;
60492;SDS011;46341;51.290;-2.474;2022-10-17T13:05:07;4.20;;;1.20;;
60492;SDS011;46341;51.290;-2.474;2022-10-17T13:07:36;5.15;;;0.82;;
60492;SDS011;46341;51.290;-2.474;2022-10-17T13:10:05;7.50;;;1.65;;
60492;SDS011;46341;51.290;-2.474;2022-10-17T13:12:35;5.47;;;0.90;;
60492;SDS011;46341;51.290;-2.474;2022-10-17T13:15:06;4.20;;;0.85;;
60492;SDS011;46341;51.290;-2.474;2022-10-17T13:22:27;5.53;;;1.20;;
60492;SDS011;46341;51.290;-2.474;2022-10-17T13:25:05;3.60;;;0.77;;
60492;SDS011;46341;51.290;-2.474;2022-10-17T13:27:33;5.38;;;1.20;;
60492;SDS011;46341;51.290;-2.474;2022-10-17T13:30:00;4.22;;;1.27;;
60492;SDS011;46341;51.290;-2.474;2022-10-17T13:32:36;4.60;;;1.33;;
60492;SDS011;46341;51.290;-2.474;2022-10-17T13:37:30;6.50;;;1.13;;
60492;SDS011;46341;51.290;-2.474;2022-10-17T13:39:56;3.47;;;0.98;;
60492;SDS011;46341;51.290;-2.474;2022-10-17T13:42:37;4.95;;;0.80;;
60492;SDS011;46341;51.290;-2.474;2022-10-17T13:45:08;4.05;;;1.23;;
60492;SDS011;46341;51.290;-2.474;2022-10-17T13:47:39;4.50;;;0.80;;
60492;SDS011;46341;51.290;-2.474;2022-10-17T13:50:06;3.17;;;0.68;;
60492;SDS011;46341;51.290;-2.474;2022-10-17T13:55:37;3.40;;;0.93;;
60492;SDS011;46341;51.290;-2.474;2022-10-17T13:58:14;5.00;;;1.10;;
60492;SDS011;46341;51.290;-2.474;2022-10-17T14:00:41;4.70;;;1.02;;
60492;SDS011;46341;51.290;-2.474;2022-10-17T14:03:07;4.38;;;0.90;;
60492;SDS011;46341;51.290;-2.474;2022-10-17T14:05:34;4.37;;;1.10;;
60492;SDS011;46341;51.290;-2.474;2022-10-17T14:08:02;5.93;;;0.80;;
60492;SDS011;46341;51.290;-2.474;2022-10-17T14:10:40;4.97;;;1.10;;
60492;SDS011;46341;51.290;-2.474;2022-10-17T14:13:13;4.50;;;1.23;;
60492;SDS011;46341;51.290;-2.474;2022-10-17T14:15:42;6.03;;;1.20;;
60492;SDS011;46341;51.290;-2.474;2022-10-17T14:18:13;5.45;;;1.08;;
60492;SDS011;46341;51.290;-2.474;2022-10-17T14:20:44;5.07;;;0.90;;
60492;SDS011;46341;51.290;-2.474;2022-10-17T14:23:41;5.10;;;1.10;;
60492;SDS011;46341;51.290;-2.474;2022-10-17T14:28:34;4.60;;;0.73;;
60492;SDS011;46341;51.290;-2.474;2022-10-17T14:34:15;3.30;;;0.90;;
60492;SDS011;46341;51.290;-2.474;2022-10-17T14:36:45;4.57;;;0.98;;
60492;SDS011;46341;51.290;-2.474;2022-10-17T14:39:21;5.90;;;0.85;;
60492;SDS011;46341;51.290;-2.474;2022-10-17T14:41:48;3.13;;;1.10;;
60492;SDS011;46341;51.290;-2.474;2022-10-17T14:44:19;5.67;;;0.87;;
60492;SDS011;46341;51.290;-2.474;2022-10-17T14:46:47;3.90;;;0.90;;
60492;SDS011;46341;51.290;-2.474;2022-10-17T14:49:18;5.72;;;0.90;;
60492;SDS011;46341;51.290;-2.474;2022-10-17T14:52:36;4.63;;;0.80;;
60492;SDS011;46341;51.290;-2.474;2022-10-17T14:54:42;6.07;;;1.23;;
60492;SDS011;46341;51.290;-2.474;2022-10-17T14:57:16;5.70;;;0.82;;
60492;SDS011;46341;51.290;-2.474;2022-10-17T14:59:43;3.58;;;0.80;;
60492;SDS011;46341;51.290;-2.474;2022-10-17T15:02:26;4.47;;;1.00;;
60492;SDS011;46341;51.290;-2.474;2022-10-17T15:04:53;4.40;;;1.42;;
60492;SDS011;46341;51.290;-2.474;2022-10-17T15:07:20;3.88;;;0.90;;
60492;SDS011;46341;51.290;-2.474;2022-10-17T15:09:47;6.93;;;1.20;;
60492;SDS011;46341;51.290;-2.474;2022-10-17T15:14:40;5.75;;;1.00;;
60492;SDS011;46341;51.290;-2.474;2022-10-17T15:17:29;6.25;;;1.25;;
60492;SDS011;46341;51.290;-2.474;2022-10-17T15:19:55;6.90;;;1.83;;
60492;SDS011;46341;51.290;-2.474;2022-10-17T15:22:22;6.03;;;1.20;;
60492;SDS011;46341;51.290;-2.474;2022-10-17T15:24:49;6.80;;;1.30;;
60492;SDS011;46341;51.290;-2.474;2022-10-17T15:27:19;7.15;;;1.45;;
60492;SDS011;46341;51.290;-2.474;2022-10-17T15:29:45;4.47;;;1.17;;
60492;SDS011;46341;51.290;-2.474;2022-10-17T15:32:12;7.53;;;1.17;;
60492;SDS011;46341;51.290;-2.474;2022-10-17T15:34:39;6.67;;;1.33;;
60492;SDS011;46341;51.290;-2.474;2022-10-17T15:37:05;4.57;;;1.17;;
60492;SDS011;46341;51.290;-2.474;2022-10-17T15:39:32;3.25;;;1.08;;
60492;SDS011;46341;51.290;-2.474;2022-10-17T15:41:59;7.07;;;1.30;;
60492;SDS011;46341;51.290;-2.474;2022-10-17T15:44:25;5.00;;;1.10;;
60492;SDS011;46341;51.290;-2.474;2022-10-17T15:46:51;5.53;;;1.27;;
60492;SDS011;46341;51.290;-2.474;2022-10-17T15:49:18;6.68;;;0.88;;
60492;SDS011;46341;51.290;-2.474;2022-10-17T15:51:45;3.70;;;0.90;;
60492;SDS011;46341;51.290;-2.474;2022-10-17T15:54:15;6.10;;;1.70;;
60492;SDS011;46341;51.290;-2.474;2022-10-17T15:56:42;9.20;;;2.30;;
60492;SDS011;46341;51.290;-2.474;2022-10-17T15:59:12;8.70;;;3.40;;
60492;SDS011;46341;51.290;-2.474;2022-10-17T16:01:40;10.93;;;3.55;;
60492;SDS011;46341;51.290;-2.474;2022-10-17T16:04:08;7.20;;;3.08;;
60492;SDS011;46341;51.290;-2.474;2022-10-17T16:06:38;10.00;;;3.42;;
60492;SDS011;46341;51.290;-2.474;2022-10-17T16:09:04;12.38;;;3.00;;
60492;SDS011;46341;51.290;-2.474;2022-10-17T16:11:32;8.80;;;2.33;;
60492;SDS011;46341;51.290;-2.474;2022-10-17T16:14:00;7.63;;;2.17;;
60492;SDS011;46341;51.290;-2.474;2022-10-17T16:16:27;10.82;;;2.55;;
60492;SDS011;46341;51.290;-2.474;2022-10-17T16:18:54;9.07;;;2.10;;
60492;SDS011;46341;51.290;-2.474;2022-10-17T16:21:21;10.20;;;2.90;;
60492;SDS011;46341;51.290;-2.474;2022-10-17T16:23:50;16.17;;;7.82;;
60492;SDS011;46341;51.290;-2.474;2022-10-17T16:26:17;20.73;;;9.90;;
60492;SDS011;46341;51.290;-2.474;2022-10-17T16:28:43;20.63;;;10.57;;
60492;SDS011;46341;51.290;-2.474;2022-10-17T16:33:47;14.02;;;5.07;;
60492;SDS011;46341;51.290;-2.474;2022-10-17T16:36:14;10.05;;;3.63;;
60492;SDS011;46341;51.290;-2.474;2022-10-17T16:38:40;11.63;;;3.10;;
60492;SDS011;46341;51.290;-2.474;2022-10-17T16:41:12;12.33;;;3.70;;
60492;SDS011;46341;51.290;-2.474;2022-10-17T16:43:40;9.82;;;4.10;;
60492;SDS011;46341;51.290;-2.474;2022-10-17T16:46:07;14.43;;;4.55;;
60492;SDS011;46341;51.290;-2.474;2022-10-17T16:48:33;16.73;;;4.63;;
60492;SDS011;46341;51.290;-2.474;2022-10-17T16:51:00;12.25;;;3.78;;
60492;SDS011;46341;51.290;-2.474;2022-10-17T16:56:00;10.43;;;3.25;;
60492;SDS011;46341;51.290;-2.474;2022-10-17T16:58:27;8.27;;;3.45;;
60492;SDS011;46341;51.290;-2.474;2022-10-17T17:00:58;7.78;;;3.22;;